createdAt,value
2018-09-13T00:00:44.416Z,19.99
2018-09-13T00:03:12.934Z,19.98
2018-09-13T00:05:41.259Z,20.00
2018-09-13T00:08:09.731Z,19.97
2018-09-13T00:10:38.277Z,19.77
2018-09-13T00:13:07.064Z,19.68
2018-09-13T00:15:35.475Z,19.71
2018-09-13T00:18:04.237Z,19.76
2018-09-13T00:20:32.828Z,19.81
2018-09-13T00:23:01.223Z,19.73
2018-09-13T00:25:30.049Z,19.73
2018-09-13T00:27:58.284Z,19.68
2018-09-13T00:30:26.536Z,19.55
2018-09-13T00:32:55.119Z,19.69
2018-09-13T00:35:24.405Z,19.62
2018-09-13T00:37:52.904Z,19.60
2018-09-13T00:40:22.610Z,19.56
2018-09-13T00:42:51.130Z,19.53
2018-09-13T00:45:19.479Z,19.48
2018-09-13T00:47:47.749Z,19.43
2018-09-13T00:50:15.956Z,19.40
2018-09-13T00:52:44.651Z,19.36
2018-09-13T00:55:12.856Z,19.41
2018-09-13T00:57:41.163Z,19.44
2018-09-13T01:00:09.708Z,19.43
2018-09-13T01:02:38.177Z,19.40
2018-09-13T01:05:07.145Z,19.42
2018-09-13T01:07:35.368Z,19.52
2018-09-13T01:10:03.989Z,19.57
2018-09-13T01:12:32.588Z,19.53
2018-09-13T01:15:00.867Z,19.57
2018-09-13T01:17:29.089Z,19.57
2018-09-13T01:19:57.664Z,19.70
2018-09-13T01:22:26.782Z,19.64
2018-09-13T01:24:56.007Z,19.56
2018-09-13T01:27:25.698Z,19.43
2018-09-13T01:29:53.979Z,19.35
2018-09-13T01:32:22.489Z,19.41
2018-09-13T01:34:51.404Z,19.53
2018-09-13T01:37:19.624Z,19.53
2018-09-13T01:39:48.156Z,19.42
2018-09-13T01:42:18.220Z,19.39
2018-09-13T01:44:46.528Z,19.40
2018-09-13T01:47:14.745Z,19.29
2018-09-13T01:49:43.611Z,19.29
2018-09-13T01:52:11.912Z,19.22
2018-09-13T01:54:40.483Z,19.22
2018-09-13T01:57:08.828Z,19.21
2018-09-13T01:59:38.176Z,19.15
2018-09-13T02:02:06.916Z,18.97
2018-09-13T02:04:36.319Z,18.96
2018-09-13T02:07:04.941Z,19.07
2018-09-13T02:09:33.459Z,19.06
2018-09-13T02:12:01.675Z,19.01
2018-09-13T02:14:31.166Z,18.95
2018-09-13T02:16:59.409Z,18.96
2018-09-13T02:19:28.060Z,19.04
2018-09-13T02:21:56.676Z,19.05
2018-09-13T02:24:25.260Z,18.98
2018-09-13T02:26:54.154Z,18.90
2018-09-13T02:29:23.544Z,18.82
2018-09-13T02:31:52.450Z,18.93
2018-09-13T02:34:20.662Z,18.99
2018-09-13T02:36:49.869Z,18.95
2018-09-13T02:39:18.741Z,18.97
2018-09-13T02:41:47.292Z,18.84
2018-09-13T02:44:16.185Z,18.79
2018-09-13T02:46:44.597Z,18.90
2018-09-13T02:49:12.845Z,18.93
2018-09-13T02:51:41.632Z,18.96
2018-09-13T02:54:09.775Z,18.96
2018-09-13T02:56:37.991Z,18.92
2018-09-13T02:59:06.191Z,18.90
2018-09-13T03:01:35.140Z,18.80
2018-09-13T03:04:03.393Z,18.74
2018-09-13T03:06:31.604Z,18.73
2018-09-13T03:08:59.881Z,18.78
2018-09-13T03:11:28.088Z,18.73
2018-09-13T03:13:56.660Z,18.67
2018-09-13T03:16:25.105Z,18.75
2018-09-13T03:18:53.636Z,18.73
2018-09-13T03:21:21.854Z,18.64
2018-09-13T03:23:50.274Z,18.86
2018-09-13T03:26:18.739Z,18.95
2018-09-13T03:28:47.422Z,18.91
2018-09-13T03:31:15.845Z,19.01
2018-09-13T03:33:44.179Z,18.93
2018-09-13T03:36:12.612Z,18.91
2018-09-13T03:38:41.161Z,18.92
2018-09-13T03:41:09.464Z,18.96
2018-09-13T03:43:38.372Z,18.88
2018-09-13T03:46:07.665Z,18.99
2018-09-13T03:48:36.076Z,19.01
2018-09-13T03:51:04.585Z,18.86
2018-09-13T03:53:33.166Z,18.88
2018-09-13T03:56:01.735Z,18.98
2018-09-13T03:58:29.957Z,19.02
2018-09-13T04:00:58.432Z,18.99
2018-09-13T04:03:27.459Z,18.98
2018-09-13T04:05:56.235Z,19.05
2018-09-13T04:08:24.511Z,19.10
2018-09-13T04:10:52.979Z,19.12
2018-09-13T04:13:21.575Z,19.11
2018-09-13T04:15:49.817Z,18.97
2018-09-13T04:18:18.636Z,18.88
2018-09-13T04:20:47.155Z,18.91
2018-09-13T04:23:15.330Z,19.06
2018-09-13T04:25:43.573Z,19.12
2018-09-13T04:28:11.764Z,19.03
2018-09-13T04:30:40.165Z,19.02
2018-09-13T04:33:09.177Z,18.97
2018-09-13T04:35:38.396Z,18.99
2018-09-13T04:38:06.856Z,18.97
2018-09-13T04:40:35.636Z,18.89
2018-09-13T04:43:04.240Z,18.74
2018-09-13T04:45:32.779Z,18.66
2018-09-13T04:48:01.293Z,18.76
2018-09-13T04:50:29.810Z,18.78
2018-09-13T04:52:58.053Z,18.78
2018-09-13T04:55:26.247Z,18.77
2018-09-13T04:57:55.012Z,18.70
2018-09-13T05:00:23.345Z,18.78
2018-09-13T05:02:51.480Z,18.82
2018-09-13T05:05:19.744Z,18.81
2018-09-13T05:07:48.633Z,18.84
2018-09-13T05:10:17.112Z,18.74
2018-09-13T05:12:45.662Z,18.77
2018-09-13T05:15:13.864Z,18.89
2018-09-13T05:17:42.416Z,19.07
2018-09-13T05:20:10.891Z,18.94
2018-09-13T05:22:39.890Z,19.05
2018-09-13T05:25:08.534Z,18.95
2018-09-13T05:27:36.988Z,18.99
2018-09-13T05:30:06.321Z,19.06
2018-09-13T05:32:35.056Z,19.04
2018-09-13T05:35:03.589Z,19.03
2018-09-13T05:37:32.915Z,19.01
2018-09-13T05:40:01.433Z,19.06
2018-09-13T05:42:29.589Z,19.06
2018-09-13T05:44:58.335Z,19.08
2018-09-13T05:47:26.574Z,19.08
2018-09-13T05:49:55.572Z,19.13
2018-09-13T05:52:24.356Z,19.23
2018-09-13T05:54:52.602Z,19.25
2018-09-13T05:57:20.813Z,19.27
2018-09-13T05:59:49.771Z,19.27
2018-09-13T06:02:18.517Z,19.24
2018-09-13T06:04:46.701Z,19.32
2018-09-13T06:07:15.204Z,19.40
2018-09-13T06:09:43.490Z,19.46
2018-09-13T06:12:12.136Z,19.56
2018-09-13T06:14:40.715Z,19.55
2018-09-13T06:17:09.229Z,19.67
2018-09-13T06:19:37.631Z,19.85
2018-09-13T06:22:05.964Z,19.79
2018-09-13T06:24:34.576Z,19.81
2018-09-13T06:27:03.054Z,19.78
2018-09-13T06:29:32.441Z,19.79
2018-09-13T06:32:00.955Z,19.84
2018-09-13T06:34:30.148Z,19.74
2018-09-13T06:36:58.802Z,19.56
2018-09-13T06:39:27.035Z,19.47
2018-09-13T06:41:56.149Z,19.46
2018-09-13T06:44:24.688Z,19.55
2018-09-13T06:46:53.352Z,19.56
2018-09-13T06:49:21.568Z,19.60
2018-09-13T06:51:50.144Z,19.65
2018-09-13T06:54:18.655Z,19.60
2018-09-13T06:56:46.856Z,19.53
2018-09-13T06:59:15.447Z,19.75
2018-09-13T07:01:43.977Z,19.85
2018-09-13T07:04:12.845Z,19.78
2018-09-13T07:06:41.177Z,19.89
2018-09-13T07:09:13.108Z,19.96
2018-09-13T07:11:42.125Z,19.88
2018-09-13T07:14:10.959Z,19.90
2018-09-13T07:16:39.759Z,19.93
2018-09-13T07:19:08.376Z,20.34
2018-09-13T07:21:36.696Z,20.52
2018-09-13T07:24:05.012Z,20.80
2018-09-13T07:26:33.537Z,20.80
2018-09-13T07:29:02.160Z,21.10
2018-09-13T07:33:58.403Z,21.61
2018-09-13T07:36:26.897Z,21.69
2018-09-13T07:38:55.762Z,22.29
2018-09-13T07:41:24.269Z,22.18
2018-09-13T07:43:52.666Z,22.44
2018-09-13T07:46:20.987Z,22.63
2018-09-13T07:48:49.855Z,22.80
2018-09-13T07:51:18.084Z,22.63
2018-09-13T07:53:46.889Z,23.04
2018-09-13T07:56:15.718Z,23.25
2018-09-13T07:58:44.257Z,23.30
2018-09-13T08:01:12.432Z,23.46
2018-09-13T08:03:41.340Z,22.97
2018-09-13T08:06:09.768Z,22.48
2018-09-13T08:08:38.458Z,22.64
2018-09-13T08:11:07.686Z,22.90
2018-09-13T08:13:38.721Z,23.16
2018-09-13T08:16:08.701Z,23.54
2018-09-13T08:18:38.579Z,23.54
2018-09-13T08:21:08.614Z,23.43
2018-09-13T08:23:38.992Z,23.57
2018-09-13T08:26:08.986Z,23.65
2018-09-13T08:28:39.615Z,23.91
2018-09-13T08:31:10.415Z,24.53
2018-09-13T08:33:41.742Z,24.97
2018-09-13T08:36:10.298Z,25.28
2018-09-13T08:38:38.913Z,25.36
2018-09-13T08:41:07.565Z,25.12
2018-09-13T08:43:37.119Z,24.81
2018-09-13T08:46:05.980Z,25.25
2018-09-13T08:48:35.147Z,25.78
2018-09-13T08:51:03.522Z,26.09
2018-09-13T08:53:32.397Z,26.13
2018-09-13T08:56:00.839Z,26.05
2018-09-13T08:58:29.761Z,26.39
2018-09-13T09:00:58.723Z,26.08
2018-09-13T09:03:27.027Z,27.03
2018-09-13T09:05:55.795Z,27.39
2018-09-13T09:08:24.520Z,27.66
2018-09-13T09:10:53.398Z,27.74
2018-09-13T09:13:22.581Z,27.20
2018-09-13T09:15:51.372Z,27.06
2018-09-13T09:18:19.939Z,27.09
2018-09-13T09:20:48.180Z,26.78
2018-09-13T09:23:16.920Z,26.47
2018-09-13T09:25:45.976Z,27.08
2018-09-13T09:28:14.252Z,27.14
2018-09-13T09:30:42.944Z,27.21
2018-09-13T09:33:11.344Z,26.84
2018-09-13T09:35:40.296Z,26.73
2018-09-13T09:38:08.622Z,26.63
2018-09-13T09:40:37.012Z,26.43
2018-09-13T09:43:06.239Z,26.52
2018-09-13T09:45:35.120Z,26.71
2018-09-13T09:48:04.516Z,26.70
2018-09-13T09:50:33.312Z,26.25
2018-09-13T09:53:01.992Z,26.07
2018-09-13T09:55:32.018Z,26.16
2018-09-13T09:58:00.270Z,26.15
2018-09-13T10:00:34.434Z,25.66
2018-09-13T10:03:03.233Z,25.23
2018-09-13T10:05:32.132Z,25.36
2018-09-13T10:08:00.690Z,25.48
2018-09-13T10:10:29.317Z,25.23
2018-09-13T10:12:57.637Z,25.06
2018-09-13T10:15:31.626Z,25.10
2018-09-13T10:18:06.291Z,25.25
2018-09-13T10:20:40.255Z,25.00
2018-09-13T10:23:15.764Z,25.04
2018-09-13T10:25:49.904Z,25.16
2018-09-13T10:28:24.124Z,24.96
2018-09-13T10:30:58.440Z,25.15
2018-09-13T10:33:33.442Z,25.26
2018-09-13T10:36:07.676Z,25.34
2018-09-13T10:38:41.969Z,25.08
2018-09-13T10:41:16.646Z,25.46
2018-09-13T10:43:50.820Z,25.89
2018-09-13T10:46:24.338Z,25.86
2018-09-13T10:48:59.863Z,25.66
2018-09-13T10:51:34.237Z,26.41
2018-09-13T10:54:40.647Z,26.17
2018-09-13T10:57:14.971Z,25.94
2018-09-13T10:59:46.633Z,26.39
2018-09-13T11:02:15.267Z,26.27
2018-09-13T11:04:45.078Z,26.11
2018-09-13T11:07:13.827Z,25.87
2018-09-13T11:09:43.978Z,26.20
2018-09-13T11:12:14.522Z,26.79
2018-09-13T11:14:51.352Z,26.45
2018-09-13T11:17:23.268Z,27.31
2018-09-13T11:19:53.381Z,27.16
2018-09-13T11:22:21.661Z,27.47
2018-09-13T11:24:50.483Z,27.84
2018-09-13T11:27:19.440Z,28.28
2018-09-13T11:29:48.164Z,27.66
2018-09-13T11:32:17.340Z,27.71
2018-09-13T11:34:45.948Z,27.91
2018-09-13T11:37:14.728Z,28.02
2018-09-13T11:39:44.199Z,27.79
2018-09-13T11:42:12.728Z,28.01
2018-09-13T11:44:42.328Z,27.53
2018-09-13T11:47:11.265Z,28.08
2018-09-13T11:49:39.977Z,28.78
2018-09-13T11:52:08.252Z,28.05
2018-09-13T11:54:37.184Z,27.93
2018-09-13T11:57:06.275Z,27.75
2018-09-13T11:59:35.097Z,27.55
2018-09-13T12:02:05.892Z,27.52
2018-09-13T12:04:36.018Z,27.48
2018-09-13T12:07:04.257Z,27.03
2018-09-13T12:09:33.265Z,26.68
2018-09-13T12:12:01.545Z,26.35
2018-09-13T12:14:30.662Z,26.25
2018-09-13T12:16:59.722Z,26.67
2018-09-13T12:19:27.948Z,27.22
2018-09-13T12:21:56.490Z,26.86
2018-09-13T12:24:25.681Z,26.77
2018-09-13T12:26:53.898Z,26.04
2018-09-13T12:29:23.040Z,25.89
2018-09-13T12:31:51.369Z,26.14
2018-09-13T12:34:20.204Z,26.71
2018-09-13T12:36:48.946Z,26.55
2018-09-13T12:39:17.184Z,26.68
2018-09-13T12:41:45.753Z,27.06
2018-09-13T12:44:14.400Z,27.70
2018-09-13T12:46:42.966Z,28.05
2018-09-13T12:49:12.707Z,28.50
2018-09-13T12:51:41.489Z,28.29
2018-09-13T12:54:10.267Z,28.60
2018-09-13T12:56:38.928Z,28.32
2018-09-13T12:59:07.640Z,28.53
2018-09-13T13:01:36.169Z,28.44
2018-09-13T13:04:04.417Z,28.78
2018-09-13T13:06:32.945Z,28.63
2018-09-13T13:09:01.276Z,29.18
2018-09-13T13:11:29.714Z,30.63
2018-09-13T13:13:58.008Z,30.60
2018-09-13T13:16:26.668Z,31.46
2018-09-13T13:18:55.572Z,32.23
2018-09-13T13:21:24.166Z,32.86
2018-09-13T13:23:52.432Z,32.83
2018-09-13T13:26:20.973Z,33.43
2018-09-13T13:28:49.521Z,34.56
2018-09-13T13:31:18.057Z,35.04
2018-09-13T13:33:46.800Z,35.11
2018-09-13T13:36:15.071Z,33.64
2018-09-13T13:38:43.920Z,34.12
2018-09-13T13:41:12.361Z,34.48
2018-09-13T13:43:41.686Z,34.37
2018-09-13T13:46:10.262Z,33.52
2018-09-13T13:48:39.193Z,32.70
2018-09-13T13:51:08.327Z,31.00
2018-09-13T13:53:37.383Z,30.10
2018-09-13T13:56:06.129Z,29.45
2018-09-13T13:58:34.430Z,28.80
2018-09-13T14:01:02.950Z,28.89
2018-09-13T14:03:31.706Z,28.62
2018-09-13T14:05:59.971Z,28.03
2018-09-13T14:08:28.573Z,27.96
2018-09-13T14:10:56.835Z,28.02
2018-09-13T14:13:25.411Z,27.49
2018-09-13T14:15:53.810Z,26.98
2018-09-13T14:18:22.875Z,27.21
2018-09-13T14:20:51.715Z,27.10
2018-09-13T14:23:20.138Z,27.66
2018-09-13T14:25:48.427Z,29.29
2018-09-13T14:28:17.008Z,32.46
2018-09-13T14:30:46.184Z,32.92
2018-09-13T14:33:14.687Z,33.38
2018-09-13T14:35:43.626Z,32.63
2018-09-13T14:38:11.899Z,31.99
2018-09-13T14:40:40.831Z,29.67
2018-09-13T14:43:09.675Z,28.43
2018-09-13T14:45:38.235Z,28.17
2018-09-13T14:48:06.481Z,27.18
2018-09-13T14:50:34.820Z,26.65
2018-09-13T14:53:03.376Z,26.12
2018-09-13T14:55:32.039Z,25.49
2018-09-13T14:58:00.364Z,24.75
2018-09-13T15:00:28.618Z,23.98
2018-09-13T15:02:57.211Z,23.66
2018-09-13T15:05:25.784Z,23.34
2018-09-13T15:07:54.109Z,23.10
2018-09-13T15:10:23.385Z,23.07
2018-09-13T15:12:52.105Z,22.79
2018-09-13T15:15:20.357Z,22.50
2018-09-13T15:17:49.039Z,22.39
2018-09-13T15:20:17.973Z,22.24
2018-09-13T15:22:46.090Z,21.70
2018-09-13T15:25:14.976Z,21.47
2018-09-13T15:27:43.517Z,21.50
2018-09-13T15:30:12.550Z,21.35
2018-09-13T15:32:42.036Z,21.09
2018-09-13T15:35:10.330Z,20.96
2018-09-13T15:37:40.479Z,21.05
2018-09-13T15:40:09.003Z,20.85
2018-09-13T15:42:37.544Z,20.88
2018-09-13T15:45:06.842Z,20.87
2018-09-13T15:47:35.364Z,20.99
2018-09-13T15:50:04.370Z,20.80
2018-09-13T15:52:32.900Z,20.75
2018-09-13T15:55:01.656Z,20.39
2018-09-13T15:57:29.909Z,20.38
2018-09-13T15:59:59.282Z,20.50
2018-09-13T16:02:27.640Z,20.30
2018-09-13T16:04:57.494Z,20.13
2018-09-13T16:07:26.411Z,19.75
2018-09-13T16:09:55.452Z,19.55
2018-09-13T16:12:23.780Z,19.27
2018-09-13T16:14:51.942Z,18.96
2018-09-13T16:17:20.415Z,18.89
2018-09-13T16:19:48.995Z,18.48
2018-09-13T16:22:18.101Z,18.45
2018-09-13T16:24:46.708Z,18.47
2018-09-13T16:27:15.578Z,18.55
2018-09-13T16:29:44.097Z,18.55
2018-09-13T16:32:17.137Z,18.43
2018-09-13T16:34:47.173Z,18.48
2018-09-13T16:37:20.983Z,18.44
2018-09-13T16:39:55.561Z,18.56
2018-09-13T16:42:30.580Z,18.68
2018-09-13T16:44:59.654Z,18.74
2018-09-13T16:47:33.844Z,18.84
2018-09-13T16:50:03.487Z,18.72
2018-09-13T16:52:31.875Z,18.84
2018-09-13T16:55:00.145Z,18.94
2018-09-13T16:57:28.978Z,18.73
2018-09-13T16:59:57.561Z,18.77
2018-09-13T17:02:25.810Z,18.93
2018-09-13T17:04:54.149Z,18.61
2018-09-13T17:07:22.827Z,18.62
2018-09-13T17:09:51.068Z,18.49
2018-09-13T17:17:17.613Z,18.53
2018-09-13T17:19:46.732Z,18.45
2018-09-13T17:22:15.563Z,18.63
2018-09-13T17:24:44.947Z,18.55
2018-09-13T17:27:13.421Z,18.61
2018-09-13T17:29:41.930Z,18.66
2018-09-13T17:32:10.351Z,18.63
2018-09-13T17:34:39.298Z,18.47
2018-09-13T17:37:08.042Z,18.48
2018-09-13T17:39:37.385Z,18.44
2018-09-13T17:42:06.278Z,18.41
2018-09-13T17:44:34.825Z,18.29
2018-09-13T17:47:03.424Z,18.29
2018-09-13T17:49:31.674Z,18.31
2018-09-13T17:52:00.716Z,18.31
2018-09-13T17:54:29.026Z,18.26
2018-09-13T17:56:57.642Z,18.30
2018-09-13T17:59:26.482Z,18.11
2018-09-13T18:01:55.066Z,18.37
2018-09-13T18:04:23.367Z,18.34
2018-09-13T18:06:51.644Z,18.27
2018-09-13T18:09:20.568Z,18.12
2018-09-13T18:11:49.142Z,18.28
2018-09-13T18:14:18.088Z,18.22
2018-09-13T18:16:47.145Z,18.20
2018-09-13T18:19:16.074Z,18.13
2018-09-13T18:21:44.304Z,18.22
2018-09-13T18:24:13.471Z,18.36
2018-09-13T18:26:42.316Z,18.31
2018-09-13T18:29:10.542Z,18.33
2018-09-13T18:31:39.037Z,18.42
2018-09-13T18:34:07.374Z,18.28
2018-09-13T18:36:35.902Z,18.37
2018-09-13T18:39:07.453Z,18.33
2018-09-13T18:41:35.983Z,18.30
2018-09-13T18:44:04.535Z,18.32
2018-09-13T18:46:33.089Z,18.41
2018-09-13T18:49:01.645Z,18.42
2018-09-13T18:51:30.636Z,18.55
2018-09-13T18:53:58.914Z,18.42
2018-09-13T18:56:27.500Z,18.42
2018-09-13T18:58:56.065Z,18.35
2018-09-13T19:01:24.846Z,18.30
2018-09-13T19:03:53.865Z,18.24
2018-09-13T19:06:22.320Z,18.22
2018-09-13T19:08:57.932Z,18.18
2018-09-13T19:11:27.058Z,18.21
2018-09-13T19:13:55.368Z,18.30
2018-09-13T19:16:23.919Z,18.28
2018-09-13T19:18:52.237Z,18.25
2018-09-13T19:21:20.772Z,18.19
2018-09-13T19:23:49.663Z,18.17
2018-09-13T19:26:18.942Z,18.10
2018-09-13T19:28:47.551Z,18.14
2018-09-13T19:31:16.105Z,18.15
2018-09-13T19:33:44.460Z,18.14
2018-09-13T19:36:12.994Z,18.03
2018-09-13T19:38:41.882Z,18.02
2018-09-13T19:41:10.684Z,18.09
2018-09-13T19:43:39.019Z,18.17
2018-09-13T19:46:07.513Z,18.21
2018-09-13T19:48:36.103Z,18.15
2018-09-13T19:51:04.757Z,18.18
2018-09-13T19:53:34.180Z,18.15
2018-09-13T19:56:02.811Z,18.11
2018-09-13T19:58:31.683Z,17.98
2018-09-13T20:00:59.878Z,17.91
2018-09-13T20:03:28.406Z,17.98
2018-09-13T20:05:56.928Z,17.98
2018-09-13T20:08:25.485Z,18.05
2018-09-13T20:10:53.728Z,18.03
2018-09-13T20:13:24.900Z,18.15
2018-09-13T20:15:53.183Z,18.18
2018-09-13T20:18:22.592Z,18.03
2018-09-13T20:20:50.782Z,18.07
2018-09-13T20:23:19.370Z,18.17
2018-09-13T20:25:48.428Z,18.25
2018-09-13T20:28:16.946Z,17.98
2018-09-13T20:30:45.939Z,17.99
2018-09-13T20:33:14.205Z,18.00
2018-09-13T20:35:42.428Z,17.97
2018-09-13T20:38:11.337Z,18.00
2018-09-13T20:40:39.590Z,18.00
2018-09-13T20:43:08.168Z,18.00
2018-09-13T20:45:36.729Z,18.05
2018-09-13T20:48:04.926Z,18.11
2018-09-13T20:50:35.009Z,18.01
2018-09-13T20:53:03.972Z,17.97
2018-09-13T20:55:32.562Z,18.03
2018-09-13T20:58:02.560Z,17.95
2018-09-13T21:00:31.999Z,18.06
2018-09-13T21:03:00.263Z,18.03
2018-09-13T21:05:28.991Z,18.12
2018-09-13T21:07:57.840Z,18.18
2018-09-13T21:10:27.089Z,18.24
2018-09-13T21:12:56.046Z,18.40
2018-09-13T21:15:24.473Z,18.35
2018-09-13T21:17:53.592Z,18.23
2018-09-13T21:20:22.169Z,18.16
2018-09-13T21:22:51.797Z,18.16
2018-09-13T21:25:20.428Z,18.07
2018-09-13T21:27:48.984Z,18.05
2018-09-13T21:30:18.139Z,18.03
2018-09-13T21:32:47.735Z,18.10
2018-09-13T21:35:16.047Z,18.13
2018-09-13T21:37:44.285Z,18.15
2018-09-13T21:40:12.754Z,18.13
2018-09-13T21:42:41.020Z,18.14
2018-09-13T21:45:09.411Z,18.23
2018-09-13T21:47:38.469Z,18.25
2018-09-13T21:50:07.206Z,18.23
2018-09-13T21:52:36.220Z,18.32
2018-09-13T21:55:05.589Z,18.28
2018-09-13T21:57:34.460Z,18.33
2018-09-13T22:00:04.393Z,18.28
2018-09-13T22:02:32.912Z,18.06
2018-09-13T22:05:01.762Z,17.97
2018-09-13T22:07:30.287Z,17.94
2018-09-13T22:09:58.912Z,17.88
2018-09-13T22:12:27.790Z,17.92
2018-09-13T22:14:56.501Z,17.87
2018-09-13T22:17:25.910Z,17.80
2018-09-13T22:19:54.371Z,17.77
2018-09-13T22:22:22.924Z,17.74
2018-09-13T22:24:52.725Z,17.63
2018-09-13T22:27:21.353Z,17.60
2018-09-13T22:29:49.757Z,17.64
2018-09-13T22:32:18.000Z,17.58
2018-09-13T22:34:46.586Z,17.48
2018-09-13T22:37:15.577Z,17.66
2018-09-13T22:39:44.324Z,17.56
2018-09-13T22:42:12.553Z,17.43
2018-09-13T22:44:42.673Z,17.37
2018-09-13T22:47:11.823Z,17.33
2018-09-13T22:49:41.060Z,17.52
2018-09-13T22:52:09.909Z,17.45
2018-09-13T22:54:38.574Z,17.30
2018-09-13T22:57:07.617Z,17.14
2018-09-13T22:59:36.368Z,17.07
2018-09-13T23:02:04.859Z,17.04
2018-09-13T23:04:33.637Z,17.05
2018-09-13T23:07:02.284Z,17.06
2018-09-13T23:09:30.719Z,16.99
2018-09-13T23:12:00.055Z,17.00
2018-09-13T23:14:28.896Z,17.04
2018-09-13T23:16:57.457Z,17.00
2018-09-13T23:19:25.773Z,17.04
2018-09-13T23:21:54.436Z,17.06
2018-09-13T23:24:23.330Z,17.03
2018-09-13T23:26:51.842Z,17.02
2018-09-13T23:29:20.456Z,16.98
2018-09-13T23:31:48.756Z,17.01
2018-09-13T23:34:17.975Z,17.02
2018-09-13T23:36:47.433Z,17.06
2018-09-13T23:39:16.609Z,17.10
2018-09-13T23:41:44.978Z,17.13
2018-09-13T23:44:13.840Z,17.14
2018-09-13T23:46:42.498Z,17.28
2018-09-13T23:49:10.863Z,17.34
2018-09-13T23:51:39.143Z,17.36
2018-09-13T23:54:15.036Z,17.38
2018-09-13T23:56:44.364Z,17.37
2018-09-13T23:59:12.905Z,17.39
